Campo Grande, Brazil
Current Conditions -  °F | °C
As of 1:00 AM on Friday 31 Oct 2014 (Local Time) from SBCG Reporting Station
Thunderstorm Thunderstorm  
Wind Chill: 70°   Ceiling: Unl
Heat Index: 70°   Visibility: 6mi
Dew Point: 66°   Wind: 12mph
Humidity: 88%   Direction: 120°ESE
Pressure: 29.91"   Gusts: NA
Location:  20.45°S, 54.63°W
Report Text: SBCG 310400Z 12010KT 9999 TS SCT035 FEW045CB SCT100 21/19 Q1013
Loading
Personal Weather Stations






























Interactive Weather Map
Tropical Storm Tracking
New forecast layout! Learn more

10-Day Weather Forecast

Advertisements
Track Severe Weather on mobile